sensor_id;sensor_type;location;lat;lon;timestamp;pressure;altitude;pressure_sealevel;temperature;humidity
68399;BME280;56258;52.196;13.868;2022-09-01T00:02:18;101908.78;;;23.68;53.36
68399;BME280;56258;52.196;13.868;2022-09-01T00:04:45;101912.50;;;23.67;53.13
68399;BME280;56258;52.196;13.868;2022-09-01T00:07:13;101907.63;;;23.62;53.32
68399;BME280;56258;52.196;13.868;2022-09-01T00:09:40;101905.75;;;23.63;53.13
68399;BME280;56258;52.196;13.868;2022-09-01T00:12:08;101902.88;;;23.64;53.17
68399;BME280;56258;52.196;13.868;2022-09-01T00:14:39;101906.09;;;23.60;53.23
68399;BME280;56258;52.196;13.868;2022-09-01T00:17:09;101900.66;;;23.60;53.36
68399;BME280;56258;52.196;13.868;2022-09-01T00:19:36;101895.56;;;23.56;53.83
68399;BME280;56258;52.196;13.868;2022-09-01T00:22:04;101903.06;;;23.63;53.27
68399;BME280;56258;52.196;13.868;2022-09-01T00:24:31;101909.97;;;23.65;53.24
68399;BME280;56258;52.196;13.868;2022-09-01T00:26:57;101905.25;;;23.59;53.23
68399;BME280;56258;52.196;13.868;2022-09-01T00:29:24;101904.19;;;23.68;53.04
68399;BME280;56258;52.196;13.868;2022-09-01T00:31:52;101901.28;;;23.70;52.98
68399;BME280;56258;52.196;13.868;2022-09-01T00:34:19;101900.81;;;23.66;53.19
68399;BME280;56258;52.196;13.868;2022-09-01T00:36:46;101910.19;;;23.55;53.13
68399;BME280;56258;52.196;13.868;2022-09-01T00:39:14;101908.16;;;23.49;53.35
68399;BME280;56258;52.196;13.868;2022-09-01T00:41:41;101903.09;;;23.46;53.52
68399;BME280;56258;52.196;13.868;2022-09-01T00:44:14;101902.59;;;23.51;53.40
68399;BME280;56258;52.196;13.868;2022-09-01T00:46:44;101905.59;;;23.56;53.02
68399;BME280;56258;52.196;13.868;2022-09-01T00:49:39;101905.59;;;23.56;52.79
68399;BME280;56258;52.196;13.868;2022-09-01T00:52:13;101897.16;;;23.51;53.15
68399;BME280;56258;52.196;13.868;2022-09-01T00:54:48;101898.47;;;23.55;52.97
68399;BME280;56258;52.196;13.868;2022-09-01T00:57:16;101896.97;;;23.52;53.40
68399;BME280;56258;52.196;13.868;2022-09-01T00:59:46;101892.19;;;23.54;52.98
68399;BME280;56258;52.196;13.868;2022-09-01T01:02:15;101885.56;;;23.57;53.07
68399;BME280;56258;52.196;13.868;2022-09-01T01:04:42;101883.53;;;23.59;53.28
68399;BME280;56258;52.196;13.868;2022-09-01T01:07:09;101893.72;;;23.57;53.01
68399;BME280;56258;52.196;13.868;2022-09-01T01:09:41;101890.50;;;23.53;52.96
68399;BME280;56258;52.196;13.868;2022-09-01T01:12:10;101883.06;;;23.47;53.18
68399;BME280;56258;52.196;13.868;2022-09-01T01:14:47;101885.94;;;23.54;52.88
68399;BME280;56258;52.196;13.868;2022-09-01T01:17:19;101879.16;;;23.50;53.18
68399;BME280;56258;52.196;13.868;2022-09-01T01:19:49;101882.22;;;23.47;53.21
68399;BME280;56258;52.196;13.868;2022-09-01T01:22:40;101883.44;;;23.44;53.23
68399;BME280;56258;52.196;13.868;2022-09-01T01:25:33;101882.19;;;23.55;53.10
68399;BME280;56258;52.196;13.868;2022-09-01T01:28:15;101882.19;;;23.55;52.75
68399;BME280;56258;52.196;13.868;2022-09-01T01:30:48;101884.94;;;23.47;53.29
68399;BME280;56258;52.196;13.868;2022-09-01T01:33:23;101885.97;;;23.46;53.20
68399;BME280;56258;52.196;13.868;2022-09-01T01:35:52;101891.75;;;23.43;53.41
68399;BME280;56258;52.196;13.868;2022-09-01T01:38:22;101884.00;;;23.40;53.24
68399;BME280;56258;52.196;13.868;2022-09-01T01:40:50;101885.69;;;23.41;53.06
68399;BME280;56258;52.196;13.868;2022-09-01T01:43:20;101882.31;;;23.39;53.11
68399;BME280;56258;52.196;13.868;2022-09-01T01:45:49;101888.06;;;23.36;53.13
68399;BME280;56258;52.196;13.868;2022-09-01T01:48:19;101885.53;;;23.34;53.15
68399;BME280;56258;52.196;13.868;2022-09-01T01:50:49;101888.44;;;23.33;53.81
68399;BME280;56258;52.196;13.868;2022-09-01T01:53:16;101889.09;;;23.35;53.54
68399;BME280;56258;52.196;13.868;2022-09-01T01:55:45;101891.81;;;23.35;53.69
68399;BME280;56258;52.196;13.868;2022-09-01T01:58:19;101887.41;;;23.34;53.34
68399;BME280;56258;52.196;13.868;2022-09-01T02:00:49;101885.06;;;23.31;53.52
68399;BME280;56258;52.196;13.868;2022-09-01T02:03:19;101881.69;;;23.28;53.87
68399;BME280;56258;52.196;13.868;2022-09-01T02:05:50;101886.06;;;23.29;53.31
68399;BME280;56258;52.196;13.868;2022-09-01T02:08:18;101886.00;;;23.38;53.31
68399;BME280;56258;52.196;13.868;2022-09-01T02:10:50;101887.41;;;23.34;53.71
68399;BME280;56258;52.196;13.868;2022-09-01T02:13:20;101881.44;;;23.38;52.94
68399;BME280;56258;52.196;13.868;2022-09-01T02:15:54;101897.41;;;23.33;53.36
68399;BME280;56258;52.196;13.868;2022-09-01T02:20:53;101895.06;;;23.30;53.73
68399;BME280;56258;52.196;13.868;2022-09-01T02:23:21;101891.19;;;23.24;53.17
68399;BME280;56258;52.196;13.868;2022-09-01T02:25:54;101887.28;;;23.27;53.94
68399;BME280;56258;52.196;13.868;2022-09-01T02:28:42;101883.41;;;23.21;53.53
68399;BME280;56258;52.196;13.868;2022-09-01T02:31:10;101883.84;;;23.33;53.21
68399;BME280;56258;52.196;13.868;2022-09-01T02:33:38;101886.75;;;23.32;53.22
68399;BME280;56258;52.196;13.868;2022-09-01T02:36:12;101886.00;;;23.38;53.20
68399;BME280;56258;52.196;13.868;2022-09-01T02:38:41;101873.19;;;23.32;52.95
68399;BME280;56258;52.196;13.868;2022-09-01T02:41:12;101871.97;;;23.34;53.15
68399;BME280;56258;52.196;13.868;2022-09-01T02:43:41;101876.25;;;23.28;53.02
68399;BME280;56258;52.196;13.868;2022-09-01T02:46:12;101875.25;;;23.21;53.61
68399;BME280;56258;52.196;13.868;2022-09-01T02:48:42;101880.00;;;23.27;53.57
68399;BME280;56258;52.196;13.868;2022-09-01T02:51:17;101872.38;;;23.23;53.62
68399;BME280;56258;52.196;13.868;2022-09-01T02:53:45;101872.84;;;23.26;52.89
68399;BME280;56258;52.196;13.868;2022-09-01T02:56:15;101877.31;;;23.19;53.50
68399;BME280;56258;52.196;13.868;2022-09-01T02:58:44;101875.63;;;23.18;53.59
68399;BME280;56258;52.196;13.868;2022-09-01T03:03:53;101880.03;;;23.19;53.66
68399;BME280;56258;52.196;13.868;2022-09-01T03:06:21;101873.97;;;23.09;53.59
68399;BME280;56258;52.196;13.868;2022-09-01T03:08:51;101872.28;;;23.08;53.38
68399;BME280;56258;52.196;13.868;2022-09-01T03:11:19;101868.53;;;23.09;53.26
68399;BME280;56258;52.196;13.868;2022-09-01T03:13:45;101869.38;;;23.10;53.46
68399;BME280;56258;52.196;13.868;2022-09-01T03:16:12;101870.88;;;23.12;53.84
68399;BME280;56258;52.196;13.868;2022-09-01T03:18:39;101870.06;;;23.12;53.47
68399;BME280;56258;52.196;13.868;2022-09-01T03:21:07;101868.00;;;23.14;53.20
68399;BME280;56258;52.196;13.868;2022-09-01T03:23:34;101866.47;;;23.19;53.20
68399;BME280;56258;52.196;13.868;2022-09-01T03:26:02;101872.59;;;23.13;53.10
68399;BME280;56258;52.196;13.868;2022-09-01T03:28:29;101877.34;;;23.11;53.72
68399;BME280;56258;52.196;13.868;2022-09-01T03:30:57;101873.97;;;23.09;53.85
68399;BME280;56258;52.196;13.868;2022-09-01T03:33:25;101878.72;;;23.07;53.70
68399;BME280;56258;52.196;13.868;2022-09-01T03:35:53;101874.50;;;23.05;53.58
68399;BME280;56258;52.196;13.868;2022-09-01T03:38:20;101873.69;;;22.96;54.18
68399;BME280;56258;52.196;13.868;2022-09-01T03:40:52;101876.19;;;23.06;53.96
68399;BME280;56258;52.196;13.868;2022-09-01T03:43:20;101878.72;;;23.07;53.99
68399;BME280;56258;52.196;13.868;2022-09-01T03:45:50;101862.09;;;23.10;53.70
68399;BME280;56258;52.196;13.868;2022-09-01T03:48:17;101867.69;;;23.09;53.53
68399;BME280;56258;52.196;13.868;2022-09-01T03:50:45;101868.72;;;23.08;54.12
68399;BME280;56258;52.196;13.868;2022-09-01T03:53:16;101869.94;;;23.05;53.65
68399;BME280;56258;52.196;13.868;2022-09-01T03:55:45;101870.88;;;23.12;53.42
68399;BME280;56258;52.196;13.868;2022-09-01T03:58:14;101866.81;;;23.16;53.52
68399;BME280;56258;52.196;13.868;2022-09-01T04:00:47;101872.91;;;23.18;53.37
68399;BME280;56258;52.196;13.868;2022-09-01T04:03:16;101868.19;;;23.12;54.00
68399;BME280;56258;52.196;13.868;2022-09-01T04:05:57;101870.88;;;23.12;53.52
68399;BME280;56258;52.196;13.868;2022-09-01T04:08:25;101872.06;;;23.18;54.12
68399;BME280;56258;52.196;13.868;2022-09-01T04:11:01;101869.53;;;23.16;53.65
68399;BME280;56258;52.196;13.868;2022-09-01T04:13:36;101870.53;;;23.15;53.92
68399;BME280;56258;52.196;13.868;2022-09-01T04:16:04;101874.25;;;23.14;54.11
68399;BME280;56258;52.196;13.868;2022-09-01T04:18:36;101876.84;;;23.08;54.40
68399;BME280;56258;52.196;13.868;2022-09-01T04:21:05;101878.72;;;23.07;54.41
68399;BME280;56258;52.196;13.868;2022-09-01T04:23:34;101875.66;;;23.10;53.73
68399;BME280;56258;52.196;13.868;2022-09-01T04:26:05;101873.59;;;23.12;54.22
68399;BME280;56258;52.196;13.868;2022-09-01T04:28:43;101879.56;;;23.08;54.12
68399;BME280;56258;52.196;13.868;2022-09-01T04:31:13;101872.78;;;23.04;54.44
68399;BME280;56258;52.196;13.868;2022-09-01T04:33:49;101873.66;;;23.04;54.33
68399;BME280;56258;52.196;13.868;2022-09-01T04:36:21;101884.66;;;23.03;54.46
68399;BME280;56258;52.196;13.868;2022-09-01T04:38:51;101879.09;;;23.04;54.15
68399;BME280;56258;52.196;13.868;2022-09-01T04:41:23;101879.75;;;23.06;53.77
68399;BME280;56258;52.196;13.868;2022-09-01T04:43:52;101884.00;;;23.00;54.48
68399;BME280;56258;52.196;13.868;2022-09-01T04:46:24;101884.19;;;22.99;53.95
68399;BME280;56258;52.196;13.868;2022-09-01T04:48:55;101886.41;;;22.95;54.21
68399;BME280;56258;52.196;13.868;2022-09-01T04:51:23;101884.53;;;22.96;53.85
68399;BME280;56258;52.196;13.868;2022-09-01T04:53:54;101885.56;;;22.95;54.14
68399;BME280;56258;52.196;13.868;2022-09-01T04:56:24;101893.03;;;22.93;54.26
68399;BME280;56258;52.196;13.868;2022-09-01T04:58:52;101890.63;;;22.98;54.77
68399;BME280;56258;52.196;13.868;2022-09-01T05:01:24;101891.75;;;23.12;54.50
68399;BME280;56258;52.196;13.868;2022-09-01T05:03:52;101895.13;;;23.45;53.61
68399;BME280;56258;52.196;13.868;2022-09-01T05:06:29;101889.91;;;23.74;53.32
68399;BME280;56258;52.196;13.868;2022-09-01T05:08:59;101896.66;;;23.78;53.88
68399;BME280;56258;52.196;13.868;2022-09-01T05:11:26;101891.88;;;24.03;52.69
68399;BME280;56258;52.196;13.868;2022-09-01T05:13:53;101886.38;;;24.11;52.66
68399;BME280;56258;52.196;13.868;2022-09-01T05:16:23;101893.69;;;24.11;52.23
68399;BME280;56258;52.196;13.868;2022-09-01T05:18:52;101894.59;;;24.03;52.50
68399;BME280;56258;52.196;13.868;2022-09-01T05:21:20;101885.81;;;24.16;52.58
68399;BME280;56258;52.196;13.868;2022-09-01T05:23:50;101883.94;;;24.16;52.28
68399;BME280;56258;52.196;13.868;2022-09-01T05:26:24;101887.03;;;24.13;52.19
68399;BME280;56258;52.196;13.868;2022-09-01T05:28:54;101890.59;;;24.14;51.73
68399;BME280;56258;52.196;13.868;2022-09-01T05:31:24;101892.66;;;24.12;51.72
68399;BME280;56258;52.196;13.868;2022-09-01T05:33:50;101887.94;;;24.06;52.17
68399;BME280;56258;52.196;13.868;2022-09-01T05:36:20;101891.31;;;24.08;51.43
68399;BME280;56258;52.196;13.868;2022-09-01T05:38:49;101894.41;;;24.05;51.79
68399;BME280;56258;52.196;13.868;2022-09-01T05:41:17;101890.84;;;24.04;51.14
68399;BME280;56258;52.196;13.868;2022-09-01T05:43:47;101892.72;;;24.04;51.39
68399;BME280;56258;52.196;13.868;2022-09-01T05:46:18;101889.53;;;24.00;51.54
68399;BME280;56258;52.196;13.868;2022-09-01T05:48:47;101892.63;;;23.97;51.61
68399;BME280;56258;52.196;13.868;2022-09-01T05:51:21;101894.13;;;24.00;51.46
68399;BME280;56258;52.196;13.868;2022-09-01T05:54:09;101896.31;;;23.96;51.57
68399;BME280;56258;52.196;13.868;2022-09-01T05:56:38;101894.47;;;23.97;51.43
68399;BME280;56258;52.196;13.868;2022-09-01T05:59:11;101887.84;;;23.99;51.41
68399;BME280;56258;52.196;13.868;2022-09-01T06:01:54;101897.34;;;23.95;51.15
68399;BME280;56258;52.196;13.868;2022-09-01T06:04:22;101887.19;;;23.97;51.26
68399;BME280;56258;52.196;13.868;2022-09-01T06:06:53;101885.66;;;23.95;51.22
68399;BME280;56258;52.196;13.868;2022-09-01T06:09:38;101887.72;;;23.93;51.22
68399;BME280;56258;52.196;13.868;2022-09-01T06:12:05;101891.78;;;23.97;51.32
68399;BME280;56258;52.196;13.868;2022-09-01T06:14:33;101892.63;;;23.97;51.16
68399;BME280;56258;52.196;13.868;2022-09-01T06:17:00;101895.97;;;23.99;51.04
68399;BME280;56258;52.196;13.868;2022-09-01T06:19:28;101892.47;;;23.91;51.28
68399;BME280;56258;52.196;13.868;2022-09-01T06:22:02;101891.94;;;23.95;51.20
68399;BME280;56258;52.196;13.868;2022-09-01T06:24:29;101890.91;;;23.96;51.07
68399;BME280;56258;52.196;13.868;2022-09-01T06:26:56;101889.59;;;23.92;51.22
68399;BME280;56258;52.196;13.868;2022-09-01T06:29:23;101892.63;;;23.97;50.83
68399;BME280;56258;52.196;13.868;2022-09-01T06:31:50;101898.75;;;23.91;51.18
68399;BME280;56258;52.196;13.868;2022-09-01T06:34:18;101897.91;;;23.91;51.08
68399;BME280;56258;52.196;13.868;2022-09-01T06:36:46;101901.66;;;23.90;51.13
68399;BME280;56258;52.196;13.868;2022-09-01T06:39:15;101904.78;;;23.78;51.83
68399;BME280;56258;52.196;13.868;2022-09-01T06:41:48;101902.09;;;23.78;51.28
68399;BME280;56258;52.196;13.868;2022-09-01T06:44:19;101902.38;;;23.83;51.15
68399;BME280;56258;52.196;13.868;2022-09-01T06:46:52;101913.00;;;23.70;51.63
68399;BME280;56258;52.196;13.868;2022-09-01T06:49:20;101910.84;;;23.57;52.07
68399;BME280;56258;52.196;13.868;2022-09-01T06:51:47;101917.66;;;23.53;51.84
68399;BME280;56258;52.196;13.868;2022-09-01T06:54:17;101914.28;;;23.51;52.22
68399;BME280;56258;52.196;13.868;2022-09-01T06:56:47;101917.34;;;23.48;52.26
68399;BME280;56258;52.196;13.868;2022-09-01T06:59:33;101914.63;;;23.48;52.26
68399;BME280;56258;52.196;13.868;2022-09-01T07:02:01;101921.97;;;23.40;52.62
68399;BME280;56258;52.196;13.868;2022-09-01T07:04:31;101917.72;;;23.37;52.54
68399;BME280;56258;52.196;13.868;2022-09-01T07:06:57;101920.81;;;23.34;52.86
68399;BME280;56258;52.196;13.868;2022-09-01T07:09:45;101920.16;;;23.32;52.52
68399;BME280;56258;52.196;13.868;2022-09-01T07:12:32;101928.19;;;23.17;52.95
68399;BME280;56258;52.196;13.868;2022-09-01T07:15:00;101928.88;;;23.11;52.79
68399;BME280;56258;52.196;13.868;2022-09-01T07:17:49;101923.09;;;23.14;53.07
68399;BME280;56258;52.196;13.868;2022-09-01T07:20:23;101926.78;;;23.29;52.70
68399;BME280;56258;52.196;13.868;2022-09-01T07:22:53;101932.50;;;23.35;52.17
68399;BME280;56258;52.196;13.868;2022-09-01T07:25:40;101924.94;;;23.22;52.74
68399;BME280;56258;52.196;13.868;2022-09-01T07:28:27;101925.16;;;23.12;52.49
68399;BME280;56258;52.196;13.868;2022-09-01T07:31:04;101927.56;;;23.07;52.77
68399;BME280;56258;52.196;13.868;2022-09-01T07:33:52;101931.22;;;23.14;52.90
68399;BME280;56258;52.196;13.868;2022-09-01T07:36:41;101935.78;;;23.22;52.85
68399;BME280;56258;52.196;13.868;2022-09-01T07:39:28;101924.25;;;23.28;52.76
68399;BME280;56258;52.196;13.868;2022-09-01T07:42:17;101933.25;;;23.20;52.75
68399;BME280;56258;52.196;13.868;2022-09-01T07:45:06;101932.41;;;23.20;52.60
68399;BME280;56258;52.196;13.868;2022-09-01T07:47:54;101932.13;;;23.07;53.03
68399;BME280;56258;52.196;13.868;2022-09-01T07:50:21;101929.38;;;23.15;52.90
68399;BME280;56258;52.196;13.868;2022-09-01T07:53:05;101929.53;;;23.21;52.73
68399;BME280;56258;52.196;13.868;2022-09-01T07:55:33;101927.97;;;23.27;52.87
68399;BME280;56258;52.196;13.868;2022-09-01T07:58:00;101935.59;;;23.32;52.06
68399;BME280;56258;52.196;13.868;2022-09-01T08:00:27;101926.63;;;23.23;52.76
68399;BME280;56258;52.196;13.868;2022-09-01T08:02:57;101924.09;;;23.21;52.77
68399;BME280;56258;52.196;13.868;2022-09-01T08:05:24;101930.56;;;23.12;52.89
68399;BME280;56258;52.196;13.868;2022-09-01T08:07:53;101929.88;;;23.18;52.66
68399;BME280;56258;52.196;13.868;2022-09-01T08:10:20;101928.81;;;23.27;52.78
68399;BME280;56258;52.196;13.868;2022-09-01T08:12:47;101928.94;;;23.34;52.16
68399;BME280;56258;52.196;13.868;2022-09-01T08:15:22;101930.28;;;23.38;52.21
68399;BME280;56258;52.196;13.868;2022-09-01T08:18:10;101935.88;;;23.37;52.50
68399;BME280;56258;52.196;13.868;2022-09-01T08:20:41;101928.78;;;23.36;52.28
68399;BME280;56258;52.196;13.868;2022-09-01T08:23:18;101931.63;;;23.42;51.92
68399;BME280;56258;52.196;13.868;2022-09-01T08:25:46;101925.84;;;23.45;51.77
68399;BME280;56258;52.196;13.868;2022-09-01T08:28:14;101931.28;;;23.45;51.80
68399;BME280;56258;52.196;13.868;2022-09-01T08:30:42;101934.53;;;23.41;51.82
68399;BME280;56258;52.196;13.868;2022-09-01T08:33:18;101931.16;;;23.39;51.67
68399;BME280;56258;52.196;13.868;2022-09-01T08:35:47;101933.13;;;23.45;51.72
68399;BME280;56258;52.196;13.868;2022-09-01T08:38:15;101941.31;;;23.37;52.08
68399;BME280;56258;52.196;13.868;2022-09-01T08:40:48;101930.19;;;23.23;52.46
68399;BME280;56258;52.196;13.868;2022-09-01T08:43:30;101928.09;;;23.34;51.76
68399;BME280;56258;52.196;13.868;2022-09-01T08:46:27;101930.28;;;23.38;52.00
68399;BME280;56258;52.196;13.868;2022-09-01T08:48:58;101930.19;;;23.63;51.34
68399;BME280;56258;52.196;13.868;2022-09-01T08:51:50;101931.94;;;23.78;50.83
68399;BME280;56258;52.196;13.868;2022-09-01T08:54:31;101929.66;;;23.90;50.44
68399;BME280;56258;52.196;13.868;2022-09-01T08:57:20;101931.16;;;24.38;49.41
68399;BME280;56258;52.196;13.868;2022-09-01T08:59:48;101926.44;;;24.70;48.42
68399;BME280;56258;52.196;13.868;2022-09-01T09:02:42;101924.09;;;24.82;48.18
68399;BME280;56258;52.196;13.868;2022-09-01T09:11:04;101926.25;;;24.86;47.98
68399;BME280;56258;52.196;13.868;2022-09-01T09:14:03;101926.63;;;24.83;48.01
68399;BME280;56258;52.196;13.868;2022-09-01T09:16:39;101915.91;;;24.96;47.71
68399;BME280;56258;52.196;13.868;2022-09-01T09:21:40;101924.06;;;25.41;46.65
68399;BME280;56258;52.196;13.868;2022-09-01T09:26:34;101925.09;;;25.40;46.65
68399;BME280;56258;52.196;13.868;2022-09-01T09:29:08;101923.56;;;25.52;45.80
68399;BME280;56258;52.196;13.868;2022-09-01T09:31:38;101917.13;;;25.74;45.44
68399;BME280;56258;52.196;13.868;2022-09-01T09:34:32;101916.63;;;25.85;45.63
68399;BME280;56258;52.196;13.868;2022-09-01T09:37:15;101910.47;;;25.98;45.17
68399;BME280;56258;52.196;13.868;2022-09-01T09:39:43;101909.19;;;26.22;44.12
68399;BME280;56258;52.196;13.868;2022-09-01T09:42:13;101907.41;;;26.36;44.35
68399;BME280;56258;52.196;13.868;2022-09-01T09:44:46;101903.13;;;26.48;43.83
68399;BME280;56258;52.196;13.868;2022-09-01T09:52:49;101904.66;;;27.26;42.20
68399;BME280;56258;52.196;13.868;2022-09-01T09:57:53;101906.16;;;27.36;41.62
68399;BME280;56258;52.196;13.868;2022-09-01T10:00:30;101900.50;;;26.61;43.44
68399;BME280;56258;52.196;13.868;2022-09-01T10:03:06;101904.72;;;26.98;43.00
68399;BME280;56258;52.196;13.868;2022-09-01T10:05:46;101903.19;;;27.30;42.06
68399;BME280;56258;52.196;13.868;2022-09-01T10:11:04;101903.47;;;26.66;42.83
68399;BME280;56258;52.196;13.868;2022-09-01T10:13:33;101908.59;;;26.27;44.51
68399;BME280;56258;52.196;13.868;2022-09-01T10:16:06;101905.09;;;26.05;45.09
68399;BME280;56258;52.196;13.868;2022-09-01T10:18:40;101902.53;;;26.03;44.99
68399;BME280;56258;52.196;13.868;2022-09-01T10:21:22;101896.22;;;27.89;40.59
68399;BME280;56258;52.196;13.868;2022-09-01T10:23:51;101896.16;;;26.73;43.13
68399;BME280;56258;52.196;13.868;2022-09-01T10:26:34;101897.97;;;26.32;44.38
68399;BME280;56258;52.196;13.868;2022-09-01T10:29:22;101900.06;;;26.08;44.99
68399;BME280;56258;52.196;13.868;2022-09-01T10:31:53;101891.13;;;25.93;45.36
68399;BME280;56258;52.196;13.868;2022-09-01T10:34:41;101887.22;;;25.81;45.34
68399;BME280;56258;52.196;13.868;2022-09-01T10:37:10;101892.50;;;25.68;46.16
68399;BME280;56258;52.196;13.868;2022-09-01T10:40:11;101893.69;;;25.58;45.73
68399;BME280;56258;52.196;13.868;2022-09-01T10:42:46;101886.63;;;25.64;45.91
68399;BME280;56258;52.196;13.868;2022-09-01T10:45:34;101894.50;;;25.95;44.99
68399;BME280;56258;52.196;13.868;2022-09-01T10:53:48;101878.75;;;31.39;33.79
68399;BME280;56258;52.196;13.868;2022-09-01T10:56:45;101876.31;;;32.02;32.53
68399;BME280;56258;52.196;13.868;2022-09-01T10:59:28;101883.22;;;32.98;31.09
68399;BME280;56258;52.196;13.868;2022-09-01T11:02:07;101887.16;;;33.43;29.86
68399;BME280;56258;52.196;13.868;2022-09-01T11:10:32;101880.13;;;31.89;32.57
68399;BME280;56258;52.196;13.868;2022-09-01T11:13:33;101885.19;;;30.34;35.81
68399;BME280;56258;52.196;13.868;2022-09-01T11:16:35;101885.41;;;28.93;38.30
68399;BME280;56258;52.196;13.868;2022-09-01T11:19:37;101886.34;;;28.14;39.85
68399;BME280;56258;52.196;13.868;2022-09-01T11:22:25;101879.63;;;28.30;39.80
68399;BME280;56258;52.196;13.868;2022-09-01T11:36:10;101876.97;;;30.09;35.61
68399;BME280;56258;52.196;13.868;2022-09-01T11:39:03;101877.91;;;32.45;31.92
68399;BME280;56258;52.196;13.868;2022-09-01T11:44:56;101870.97;;;36.15;26.20
68399;BME280;56258;52.196;13.868;2022-09-01T11:47:32;101870.22;;;35.61;26.93
68399;BME280;56258;52.196;13.868;2022-09-01T11:52:33;101866.06;;;35.09;27.47
68399;BME280;56258;52.196;13.868;2022-09-01T11:55:05;101867.59;;;35.44;27.29
68399;BME280;56258;52.196;13.868;2022-09-01T11:57:37;101866.94;;;35.37;27.27
68399;BME280;56258;52.196;13.868;2022-09-01T12:00:10;101867.88;;;34.99;27.73
68399;BME280;56258;52.196;13.868;2022-09-01T12:02:48;101861.34;;;34.66;28.06
68399;BME280;56258;52.196;13.868;2022-09-01T12:07:54;101868.44;;;33.90;29.18
68399;BME280;56258;52.196;13.868;2022-09-01T12:15:29;101854.59;;;32.99;30.61
68399;BME280;56258;52.196;13.868;2022-09-01T12:18:18;101855.91;;;32.97;30.59
68399;BME280;56258;52.196;13.868;2022-09-01T12:20:47;101853.31;;;32.90;30.95
68399;BME280;56258;52.196;13.868;2022-09-01T12:23:37;101847.59;;;32.68;31.23
68399;BME280;56258;52.196;13.868;2022-09-01T12:26:12;101844.00;;;32.68;31.57
68399;BME280;56258;52.196;13.868;2022-09-01T12:28:40;101845.47;;;32.47;32.07
68399;BME280;56258;52.196;13.868;2022-09-01T12:31:14;101848.81;;;32.37;32.52
68399;BME280;56258;52.196;13.868;2022-09-01T12:33:44;101843.53;;;32.12;32.68
68399;BME280;56258;52.196;13.868;2022-09-01T12:36:32;101841.25;;;31.74;33.86
68399;BME280;56258;52.196;13.868;2022-09-01T12:39:23;101840.69;;;31.65;33.32
68399;BME280;56258;52.196;13.868;2022-09-01T12:44:52;101837.97;;;31.35;34.38
68399;BME280;56258;52.196;13.868;2022-09-01T12:52:59;101841.63;;;30.99;35.12
68399;BME280;56258;52.196;13.868;2022-09-01T12:55:32;101847.88;;;31.06;34.94
68399;BME280;56258;52.196;13.868;2022-09-01T12:58:20;101837.91;;;30.94;35.43
68399;BME280;56258;52.196;13.868;2022-09-01T13:01:00;101835.94;;;30.83;35.48
68399;BME280;56258;52.196;13.868;2022-09-01T13:03:29;101836.84;;;30.76;35.91
68399;BME280;56258;52.196;13.868;2022-09-01T13:05:57;101830.75;;;30.74;35.97
68399;BME280;56258;52.196;13.868;2022-09-01T13:08:30;101826.31;;;30.73;35.55
68399;BME280;56258;52.196;13.868;2022-09-01T13:11:12;101821.56;;;30.62;35.87
68399;BME280;56258;52.196;13.868;2022-09-01T13:13:39;101814.47;;;30.55;36.76
68399;BME280;56258;52.196;13.868;2022-09-01T13:16:07;101815.47;;;30.60;36.10
68399;BME280;56258;52.196;13.868;2022-09-01T13:18:39;101818.78;;;30.69;36.32
68399;BME280;56258;52.196;13.868;2022-09-01T13:21:27;101813.31;;;30.69;35.89
68399;BME280;56258;52.196;13.868;2022-09-01T13:23:55;101820.53;;;30.63;36.30
68399;BME280;56258;52.196;13.868;2022-09-01T13:26:22;101813.81;;;30.59;36.75
68399;BME280;56258;52.196;13.868;2022-09-01T13:28:49;101808.31;;;30.59;36.55
68399;BME280;56258;52.196;13.868;2022-09-01T13:31:17;101807.47;;;30.59;36.49
68399;BME280;56258;52.196;13.868;2022-09-01T13:34:01;101809.16;;;30.60;36.47
68399;BME280;56258;52.196;13.868;2022-09-01T13:36:36;101806.81;;;30.63;36.14
68399;BME280;56258;52.196;13.868;2022-09-01T13:39:17;101805.06;;;30.69;36.24
68399;BME280;56258;52.196;13.868;2022-09-01T13:41:46;101808.78;;;30.74;36.51
68399;BME280;56258;52.196;13.868;2022-09-01T13:44:13;101804.19;;;30.87;36.06
68399;BME280;56258;52.196;13.868;2022-09-01T13:46:39;101801.72;;;30.97;36.06
68399;BME280;56258;52.196;13.868;2022-09-01T13:49:27;101800.72;;;31.10;35.62
68399;BME280;56258;52.196;13.868;2022-09-01T13:52:13;101795.94;;;31.05;35.55
68399;BME280;56258;52.196;13.868;2022-09-01T13:54:40;101801.41;;;31.05;35.54
68399;BME280;56258;52.196;13.868;2022-09-01T13:57:10;101800.53;;;30.93;35.79
68399;BME280;56258;52.196;13.868;2022-09-01T13:59:41;101808.78;;;30.93;35.99
68399;BME280;56258;52.196;13.868;2022-09-01T14:02:08;101797.22;;;31.02;35.52
68399;BME280;56258;52.196;13.868;2022-09-01T14:04:36;101799.69;;;30.92;35.97
68399;BME280;56258;52.196;13.868;2022-09-01T14:07:03;101797.03;;;30.86;35.83
68399;BME280;56258;52.196;13.868;2022-09-01T14:09:30;101802.72;;;30.29;36.82
68399;BME280;56258;52.196;13.868;2022-09-01T14:11:56;101799.00;;;29.74;38.21
68399;BME280;56258;52.196;13.868;2022-09-01T14:14:23;101802.16;;;29.52;38.66
68399;BME280;56258;52.196;13.868;2022-09-01T14:16:50;101790.72;;;30.05;37.65
68399;BME280;56258;52.196;13.868;2022-09-01T14:19:17;101783.63;;;30.23;37.36
68399;BME280;56258;52.196;13.868;2022-09-01T14:21:44;101785.97;;;30.37;37.05
68399;BME280;56258;52.196;13.868;2022-09-01T14:24:12;101782.78;;;30.40;37.22